Time;durP1;ratioP1;P1;durP2;ratioP2;P2;SDS_P1;SDS_P2;PMS_P1;PMS_P2;Temp;Humidity;BMP_temperature;BMP_pressure;BME280_temperature;BME280_humidity;BME280_pressure;Samples;Min_cycle;Max_cycle;Signal;HPM_P1;HPM_P2
2022/12/07 15:03:07;;;;;;;8.68;3.33;;;4.70;89.10;;;;;;5111215;27;20164;-61
2022/12/07 15:05:33;;;;;;;13.98;4.07;;;4.70;89.20;;;;;;5110638;28;20023;-60
2022/12/07 15:07:59;;;;;;;13.60;4.93;;;4.70;89.20;;;;;;5110611;28;20041;-59
2022/12/07 15:10:29;;;;;;;10.80;3.97;;;4.70;89.10;;;;;;5110692;28;20020;-60
2022/12/07 15:14:07;;;;;;;10.77;3.83;;;4.70;89.10;;;;;;5110771;28;20046;-61
2022/12/07 15:15:46;;;;;;;8.80;3.50;;;4.80;89.00;;;;;;5110361;28;20042;-59
2022/12/07 15:18:12;;;;;;;8.27;3.00;;;4.80;89.10;;;;;;5110170;28;20027;-59
2022/12/07 15:20:37;;;;;;;9.80;3.92;;;4.70;89.10;;;;;;5110369;28;20118;-60
2022/12/07 15:23:03;;;;;;;11.50;3.03;;;4.70;89.20;;;;;;5110471;28;20514;-59
2022/12/07 15:25:29;;;;;;;11.85;3.47;;;4.60;89.20;;;;;;5110514;28;20020;-58
2022/12/07 15:27:54;;;;;;;19.02;3.55;;;4.60;89.20;;;;;;5109377;28;20042;-59
2022/12/07 15:30:20;;;;;;;9.25;3.35;;;4.70;89.30;;;;;;5110292;28;20023;-61
2022/12/07 15:32:50;;;;;;;6.50;3.53;;;4.70;89.20;;;;;;5108704;28;20097;-60
2022/12/07 15:35:16;;;;;;;10.00;3.60;;;4.70;89.20;;;;;;5110445;28;20427;-59
2022/12/07 15:37:42;;;;;;;14.73;5.22;;;4.60;89.20;;;;;;5091984;28;20266;-57
2022/12/07 15:40:09;;;;;;;14.68;3.72;;;4.70;89.30;;;;;;5108797;28;20028;-59
2022/12/07 15:42:36;;;;;;;5.57;3.30;;;4.70;89.30;;;;;;5110265;28;20054;-58
2022/12/07 15:45:05;;;;;;;11.77;3.63;;;4.60;89.30;;;;;;5110696;28;20452;-59
2022/12/07 15:47:36;;;;;;;7.43;3.80;;;4.70;89.40;;;;;;5110198;28;20077;-59
2022/12/07 15:50:04;;;;;;;11.30;4.03;;;4.70;89.30;;;;;;5110117;28;20076;-60
2022/12/07 15:52:29;;;;;;;7.78;3.10;;;4.70;89.20;;;;;;5110195;28;20028;-60
2022/12/07 15:54:55;;;;;;;13.77;5.15;;;4.80;89.20;;;;;;5109853;28;20571;-57
2022/12/07 15:57:21;;;;;;;11.75;4.00;;;4.80;89.20;;;;;;5109815;28;20103;-59
2022/12/07 15:59:46;;;;;;;5.97;4.05;;;4.80;89.20;;;;;;5109461;28;20452;-59
2022/12/07 16:02:12;;;;;;;11.48;4.03;;;4.80;89.20;;;;;;5109130;28;20083;-59
2022/12/07 16:04:38;;;;;;;8.63;4.30;;;4.80;89.30;;;;;;5109575;28;20045;-59
2022/12/07 16:07:04;;;;;;;6.88;4.10;;;4.70;89.40;;;;;;5108791;28;20376;-61
2022/12/07 16:09:29;;;;;;;14.18;5.05;;;4.80;89.50;;;;;;5110190;28;20016;-60
2022/12/07 16:11:55;;;;;;;11.52;3.80;;;4.80;89.30;;;;;;5110147;28;20535;-60
2022/12/07 16:14:21;;;;;;;9.18;4.38;;;4.80;89.20;;;;;;5097551;28;20038;-59
2022/12/07 16:16:47;;;;;;;6.72;3.72;;;4.80;89.20;;;;;;5096555;28;20067;-59
2022/12/07 16:19:13;;;;;;;15.75;4.32;;;4.80;89.40;;;;;;5095883;28;20020;-59
2022/12/07 16:21:39;;;;;;;11.35;4.10;;;4.80;89.30;;;;;;5095403;28;20031;-60
2022/12/07 16:24:05;;;;;;;7.80;3.97;;;4.80;89.30;;;;;;5095504;28;20086;-58
2022/12/07 16:26:31;;;;;;;9.57;5.43;;;4.80;89.00;;;;;;5095244;28;20117;-59
2022/12/07 16:28:57;;;;;;;5.60;3.60;;;4.80;89.00;;;;;;5095384;28;20089;-60
2022/12/07 16:31:25;;;;;;;6.10;4.00;;;4.90;88.80;;;;;;5095418;28;20047;-61
2022/12/07 16:33:54;;;;;;;5.78;3.90;;;4.90;88.90;;;;;;5095473;28;20099;-60
2022/12/07 16:36:21;;;;;;;9.27;3.83;;;4.90;88.90;;;;;;5095224;28;20016;-60
2022/12/07 16:38:48;;;;;;;9.30;4.60;;;4.90;88.70;;;;;;5095374;28;20221;-61
2022/12/07 16:41:14;;;;;;;6.22;4.72;;;5.00;88.60;;;;;;5094904;28;20126;-60
2022/12/07 16:43:40;;;;;;;13.05;3.88;;;4.90;88.30;;;;;;5093786;28;20016;-59
2022/12/07 16:46:06;;;;;;;15.07;4.50;;;4.90;88.30;;;;;;5095257;28;20372;-60
2022/12/07 16:48:36;;;;;;;8.77;3.83;;;5.00;88.40;;;;;;5095117;28;20095;-61
2022/12/07 16:51:05;;;;;;;9.15;3.40;;;5.00;88.50;;;;;;5095413;28;20021;-61
2022/12/07 16:53:30;;;;;;;7.10;4.03;;;5.00;88.20;;;;;;5095152;28;20028;-59
2022/12/07 16:55:56;;;;;;;10.63;4.38;;;4.90;88.20;;;;;;5095154;28;20349;-60
2022/12/07 16:58:22;;;;;;;15.15;5.30;;;5.00;88.10;;;;;;5095283;28;20062;-59
2022/12/07 17:00:48;;;;;;;10.15;4.00;;;4.90;88.20;;;;;;5094840;28;20039;-60
2022/12/07 17:03:14;;;;;;;16.75;4.40;;;5.00;88.00;;;;;;5095448;28;20077;-59
2022/12/07 17:05:42;;;;;;;6.25;3.70;;;5.10;88.10;;;;;;5093917;28;20392;-62
2022/12/07 17:08:08;;;;;;;10.00;3.67;;;5.00;87.90;;;;;;5094495;28;20024;-59
2022/12/07 17:10:38;;;;;;;13.80;4.28;;;5.00;88.10;;;;;;5094937;28;20086;-60
2022/12/07 17:15:16;;;;;;;9.95;4.68;;;5.00;88.20;;;;;;5100302;28;20024;-58
2022/12/07 17:16:02;;;;;;;9.25;4.20;;;5.00;88.30;;;;;;5094765;28;20107;-59
2022/12/07 17:18:32;;;;;;;8.73;3.70;;;5.00;88.20;;;;;;5094836;28;20081;-60
2022/12/07 17:21:16;;;;;;;10.55;4.65;;;4.90;88.40;;;;;;5093160;28;20027;-60
2022/12/07 17:23:42;;;;;;;10.60;4.97;;;5.00;88.60;;;;;;5076574;28;20120;-60
2022/12/07 17:26:14;;;;;;;7.07;3.22;;;4.80;89.00;;;;;;5093329;28;20055;-61
2022/12/07 17:28:40;;;;;;;14.65;4.68;;;4.70;89.20;;;;;;5094903;28;20031;-60
2022/12/07 17:31:08;;;;;;;8.88;3.97;;;4.60;89.40;;;;;;5094554;28;20383;-61
2022/12/07 17:33:34;;;;;;;13.23;4.65;;;4.50;89.40;;;;;;5094159;28;20059;-58
2022/12/07 17:36:01;;;;;;;10.30;4.43;;;4.40;89.60;;;;;;5094368;28;20054;-61
2022/12/07 17:38:28;;;;;;;13.77;4.13;;;4.30;89.30;;;;;;5092884;28;20028;-59
2022/12/07 17:40:54;;;;;;;10.45;3.83;;;4.30;89.30;;;;;;5093975;28;20024;-59
2022/12/07 17:43:19;;;;;;;7.05;3.55;;;4.30;89.00;;;;;;5093017;28;20036;-59
2022/12/07 17:45:45;;;;;;;6.45;3.63;;;4.30;89.10;;;;;;5093907;28;20020;-60
2022/12/07 17:48:11;;;;;;;7.70;3.35;;;4.30;89.10;;;;;;5093944;28;20020;-60
2022/12/07 17:53:23;;;;;;;9.55;3.90;;;4.30;89.00;;;;;;5094820;28;20102;-59
2022/12/07 17:55:53;;;;;;;11.70;4.10;;;4.30;89.00;;;;;;5092580;28;20032;-61
2022/12/07 17:58:18;;;;;;;7.45;3.33;;;4.20;88.90;;;;;;5094369;28;20035;-58
2022/12/07 18:00:44;;;;;;;7.80;4.40;;;4.20;89.00;;;;;;5093589;28;20158;-59
2022/12/07 18:03:10;;;;;;;7.38;4.43;;;4.20;89.30;;;;;;5094532;28;20047;-60
2022/12/07 18:05:37;;;;;;;7.63;4.53;;;4.20;89.00;;;;;;5093894;28;20029;-61
2022/12/07 18:08:03;;;;;;;11.13;4.38;;;4.20;89.10;;;;;;5093779;28;20495;-61
2022/12/07 18:10:29;;;;;;;12.52;4.95;;;4.20;89.20;;;;;;5094834;28;20431;-60
2022/12/07 18:13:34;;;;;;;9.90;4.60;;;4.30;89.30;;;;;;5094072;28;20107;-60
2022/12/07 18:15:41;;;;;;;8.32;4.93;;;4.20;89.30;;;;;;5093872;28;20028;-61
2022/12/07 18:18:06;;;;;;;12.73;5.10;;;4.20;89.60;;;;;;5093485;28;20099;-60
2022/12/07 18:20:32;;;;;;;13.18;5.95;;;4.30;89.70;;;;;;5093219;28;20032;-62
2022/12/07 18:22:57;;;;;;;9.35;4.57;;;4.30;89.60;;;;;;5092987;28;20050;-59
2022/12/07 18:25:23;;;;;;;9.02;5.15;;;4.30;89.70;;;;;;5093488;28;20020;-61
2022/12/07 18:27:49;;;;;;;10.27;4.80;;;4.30;89.70;;;;;;5093635;28;20094;-59
2022/12/07 18:30:14;;;;;;;9.63;4.68;;;4.30;89.60;;;;;;5092088;28;20024;-60
2022/12/07 18:32:40;;;;;;;13.23;5.03;;;4.30;89.60;;;;;;5093469;28;20092;-60
2022/12/07 18:35:06;;;;;;;12.23;6.15;;;4.40;89.50;;;;;;5093426;28;20046;-59
2022/12/07 18:37:32;;;;;;;10.88;5.75;;;4.40;89.40;;;;;;5093440;28;20088;-59
2022/12/07 18:39:58;;;;;;;12.40;4.38;;;4.50;89.20;;;;;;5093461;28;20476;-59
2022/12/07 18:42:24;;;;;;;10.20;4.75;;;4.40;89.10;;;;;;5093312;28;20027;-59
2022/12/07 18:44:49;;;;;;;10.60;5.07;;;4.50;89.10;;;;;;5092003;28;20131;-60
2022/12/07 18:47:15;;;;;;;8.80;4.47;;;4.50;88.90;;;;;;5093517;28;20024;-60
2022/12/07 18:49:40;;;;;;;11.02;5.18;;;4.50;88.90;;;;;;5093589;28;20115;-60
2022/12/07 18:52:06;;;;;;;13.13;5.82;;;4.50;88.80;;;;;;5093528;28;20020;-61
2022/12/07 18:54:32;;;;;;;8.90;4.63;;;4.60;88.90;;;;;;5093270;28;20054;-60
2022/12/07 18:56:57;;;;;;;9.57;5.28;;;4.60;88.60;;;;;;5092432;28;20495;-60
2022/12/07 19:02:10;;;;;;;7.20;4.60;;;4.70;88.10;;;;;;5093385;28;20549;-60
2022/12/07 19:04:35;;;;;;;10.43;4.20;;;4.70;87.90;;;;;;5093765;28;20031;-60
2022/12/07 19:07:01;;;;;;;8.43;2.83;;;4.70;87.60;;;;;;5093607;28;20520;-60
2022/12/07 19:09:26;;;;;;;5.35;3.05;;;4.50;88.00;;;;;;5093751;28;20095;-60
2022/12/07 19:11:53;;;;;;;4.00;2.92;;;4.30;88.50;;;;;;5093335;28;20069;-61
2022/12/07 19:14:31;;;;;;;6.72;2.42;;;4.30;88.70;;;;;;5091994;28;20085;-62
2022/12/07 19:16:59;;;;;;;4.35;2.38;;;4.30;88.90;;;;;;5094010;28;20028;-60
2022/12/07 19:19:30;;;;;;;3.25;2.40;;;4.30;89.10;;;;;;5093172;28;20035;-60
2022/12/07 19:21:56;;;;;;;2.63;1.80;;;4.10;89.00;;;;;;5093239;28;20404;-61
2022/12/07 19:24:22;;;;;;;3.55;1.70;;;4.00;89.40;;;;;;5093259;28;20024;-60
2022/12/07 19:26:47;;;;;;;4.80;2.17;;;4.00;89.80;;;;;;5093200;28;20463;-60
2022/12/07 19:29:13;;;;;;;15.05;10.07;;;3.90;90.00;;;;;;5092935;28;20141;-61
2022/12/07 19:31:39;;;;;;;10.63;4.65;;;3.90;90.30;;;;;;5092938;28;20376;-61
2022/12/07 19:34:09;;;;;;;5.22;3.58;;;4.10;90.40;;;;;;5093223;28;20024;-61
2022/12/07 19:36:35;;;;;;;5.97;4.10;;;4.10;90.20;;;;;;5093134;28;20449;-60
2022/12/07 19:39:01;;;;;;;8.43;4.85;;;4.10;90.20;;;;;;5092932;28;20024;-61
2022/12/07 19:41:33;;;;;;;11.13;6.88;;;4.10;90.70;;;;;;5092648;28;20046;-60
2022/12/07 19:44:00;;;;;;;14.90;6.30;;;4.00;91.10;;;;;;5092982;28;20405;-60
2022/12/07 19:46:29;;;;;;;10.57;6.03;;;4.00;91.40;;;;;;5092900;28;20016;-61
2022/12/07 19:48:55;;;;;;;10.57;6.72;;;4.00;91.60;;;;;;5094872;28;20032;-60
2022/12/07 19:51:21;;;;;;;11.00;7.00;;;4.00;91.60;;;;;;5096635;28;20030;-59
2022/12/07 19:53:46;;;;;;;8.30;6.68;;;3.90;91.70;;;;;;5096672;28;20024;-60
2022/12/07 19:56:20;;;;;;;9.35;6.50;;;3.80;91.80;;;;;;5096561;28;20028;-59
2022/12/07 19:58:46;;;;;;;15.20;8.52;;;3.90;92.00;;;;;;5095457;28;20028;-59
2022/12/07 20:01:13;;;;;;;15.50;8.30;;;4.00;92.10;;;;;;5096128;28;20040;-61
2022/12/07 20:03:39;;;;;;;19.52;10.20;;;3.90;92.00;;;;;;5096357;28;20020;-61
2022/12/07 20:06:16;;;;;;;15.85;8.82;;;3.90;92.00;;;;;;5096720;28;20027;-61
2022/12/07 20:08:43;;;;;;;14.63;9.30;;;3.90;92.10;;;;;;5096267;28;20028;-61
2022/12/07 20:13:53;;;;;;;19.13;10.00;;;3.90;92.30;;;;;;5096331;28;20046;-59
2022/12/07 20:16:19;;;;;;;16.90;10.45;;;4.00;92.50;;;;;;5097250;28;20024;-59
2022/12/07 20:18:45;;;;;;;19.70;10.32;;;3.90;92.30;;;;;;5096778;28;20170;-62
2022/12/07 20:21:11;;;;;;;18.15;10.15;;;3.90;92.20;;;;;;5096295;28;20103;-61
2022/12/07 20:23:36;;;;;;;15.35;9.82;;;3.80;92.30;;;;;;5096256;28;20020;-59
2022/12/07 20:26:08;;;;;;;18.63;11.75;;;3.90;92.40;;;;;;5096005;28;20016;-60
2022/12/07 20:28:34;;;;;;;17.10;10.55;;;3.80;92.40;;;;;;5095936;28;20024;-58
2022/12/07 20:30:59;;;;;;;19.10;11.32;;;3.80;92.50;;;;;;5096465;28;20103;-59
2022/12/07 20:33:25;;;;;;;16.92;9.35;;;3.80;92.60;;;;;;5097070;28;20024;-59
2022/12/07 20:35:51;;;;;;;20.33;11.00;;;3.80;92.70;;;;;;5096942;28;20487;-60
2022/12/07 20:38:17;;;;;;;23.08;10.68;;;3.80;92.80;;;;;;5096191;28;20024;-64
2022/12/07 20:40:48;;;;;;;20.50;10.88;;;3.80;92.80;;;;;;5097590;28;20031;-62
2022/12/07 20:43:14;;;;;;;21.77;10.82;;;3.80;92.80;;;;;;5097190;28;20447;-62
2022/12/07 20:45:49;;;;;;;21.02;11.18;;;3.80;92.80;;;;;;5096416;28;20016;-61
2022/12/07 20:48:15;;;;;;;22.95;12.10;;;3.80;92.90;;;;;;5096829;28;20020;-61
2022/12/07 20:50:41;;;;;;;22.50;10.73;;;3.80;92.90;;;;;;5095788;28;20030;-60
2022/12/07 20:53:08;;;;;;;19.95;10.90;;;3.80;92.80;;;;;;5095901;28;20474;-61
2022/12/07 20:55:34;;;;;;;23.05;11.70;;;3.80;92.90;;;;;;5095470;28;20028;-61
2022/12/07 20:58:00;;;;;;;21.30;13.02;;;3.80;92.90;;;;;;5096025;28;20032;-61
2022/12/07 21:00:26;;;;;;;17.40;11.90;;;3.80;92.90;;;;;;5095446;28;20039;-62
